sensor_id;sensor_type;location;lat;lon;timestamp;temperature;humidity
1107;DHT22;540;49.448;8.612;2023-03-01T00:02:24;1.60;77.50
1107;DHT22;540;49.448;8.612;2023-03-01T00:04:52;2.00;77.50
1107;DHT22;540;49.448;8.612;2023-03-01T00:07:20;1.80;77.20
1107;DHT22;540;49.448;8.612;2023-03-01T00:09:47;1.90;77.50
1107;DHT22;540;49.448;8.612;2023-03-01T00:12:15;2.00;77.00
1107;DHT22;540;49.448;8.612;2023-03-01T00:14:44;1.70;77.10
1107;DHT22;540;49.448;8.612;2023-03-01T00:17:12;1.70;76.60
1107;DHT22;540;49.448;8.612;2023-03-01T00:19:40;1.70;76.70
1107;DHT22;540;49.448;8.612;2023-03-01T00:22:08;1.70;77.80
1107;DHT22;540;49.448;8.612;2023-03-01T00:24:36;1.70;77.30
1107;DHT22;540;49.448;8.612;2023-03-01T00:27:03;1.40;76.80
1107;DHT22;540;49.448;8.612;2023-03-01T00:29:31;1.60;77.40
1107;DHT22;540;49.448;8.612;2023-03-01T00:32:00;1.80;79.20
1107;DHT22;540;49.448;8.612;2023-03-01T00:34:28;1.50;78.60
1107;DHT22;540;49.448;8.612;2023-03-01T00:36:56;1.40;79.50
1107;DHT22;540;49.448;8.612;2023-03-01T00:39:32;1.40;78.40
1107;DHT22;540;49.448;8.612;2023-03-01T00:41:59;1.50;79.00
1107;DHT22;540;49.448;8.612;2023-03-01T00:44:27;1.60;78.50
1107;DHT22;540;49.448;8.612;2023-03-01T00:46:55;1.50;79.10
1107;DHT22;540;49.448;8.612;2023-03-01T00:49:24;1.60;78.10
1107;DHT22;540;49.448;8.612;2023-03-01T00:51:54;1.20;77.30
1107;DHT22;540;49.448;8.612;2023-03-01T00:54:21;1.70;78.10
1107;DHT22;540;49.448;8.612;2023-03-01T00:56:49;1.50;77.80
1107;DHT22;540;49.448;8.612;2023-03-01T00:59:17;1.70;77.90
1107;DHT22;540;49.448;8.612;2023-03-01T01:01:45;1.30;78.00
1107;DHT22;540;49.448;8.612;2023-03-01T01:04:13;1.60;77.90
1107;DHT22;540;49.448;8.612;2023-03-01T01:06:43;1.60;77.80
1107;DHT22;540;49.448;8.612;2023-03-01T01:09:14;1.70;78.00
1107;DHT22;540;49.448;8.612;2023-03-01T01:11:44;1.50;77.50
1107;DHT22;540;49.448;8.612;2023-03-01T01:14:13;1.70;78.30
1107;DHT22;540;49.448;8.612;2023-03-01T01:16:40;1.90;78.10
1107;DHT22;540;49.448;8.612;2023-03-01T01:19:09;1.80;77.80
1107;DHT22;540;49.448;8.612;2023-03-01T01:21:37;1.60;78.40
1107;DHT22;540;49.448;8.612;2023-03-01T01:24:07;1.80;79.00
1107;DHT22;540;49.448;8.612;2023-03-01T01:26:35;1.90;79.20
1107;DHT22;540;49.448;8.612;2023-03-01T01:29:04;1.70;77.60
1107;DHT22;540;49.448;8.612;2023-03-01T01:31:33;1.90;77.60
1107;DHT22;540;49.448;8.612;2023-03-01T01:34:03;2.00;78.00
1107;DHT22;540;49.448;8.612;2023-03-01T01:36:32;1.80;76.50
1107;DHT22;540;49.448;8.612;2023-03-01T01:39:00;2.20;76.10
1107;DHT22;540;49.448;8.612;2023-03-01T01:41:30;1.60;75.00
1107;DHT22;540;49.448;8.612;2023-03-01T01:44:13;2.10;75.90
1107;DHT22;540;49.448;8.612;2023-03-01T01:46:43;1.90;76.20
1107;DHT22;540;49.448;8.612;2023-03-01T01:49:19;2.00;75.80
1107;DHT22;540;49.448;8.612;2023-03-01T01:51:49;2.00;76.40
1107;DHT22;540;49.448;8.612;2023-03-01T01:54:21;2.40;76.60
1107;DHT22;540;49.448;8.612;2023-03-01T01:56:55;2.30;76.70
1107;DHT22;540;49.448;8.612;2023-03-01T01:59:25;2.20;75.80
1107;DHT22;540;49.448;8.612;2023-03-01T02:01:58;2.00;75.90
1107;DHT22;540;49.448;8.612;2023-03-01T02:04:27;2.20;77.10
1107;DHT22;540;49.448;8.612;2023-03-01T02:06:59;2.20;76.90
1107;DHT22;540;49.448;8.612;2023-03-01T02:09:28;1.90;75.90
1107;DHT22;540;49.448;8.612;2023-03-01T02:12:00;1.50;76.20
1107;DHT22;540;49.448;8.612;2023-03-01T02:14:28;2.10;75.80
1107;DHT22;540;49.448;8.612;2023-03-01T02:16:56;1.90;76.40
1107;DHT22;540;49.448;8.612;2023-03-01T02:19:35;2.20;76.30
1107;DHT22;540;49.448;8.612;2023-03-01T02:22:14;2.10;77.10
1107;DHT22;540;49.448;8.612;2023-03-01T02:24:49;2.10;76.70
1107;DHT22;540;49.448;8.612;2023-03-01T02:27:23;2.00;76.40
1107;DHT22;540;49.448;8.612;2023-03-01T02:29:54;2.00;76.30
1107;DHT22;540;49.448;8.612;2023-03-01T02:32:23;2.10;77.50
1107;DHT22;540;49.448;8.612;2023-03-01T02:34:53;2.10;76.60
1107;DHT22;540;49.448;8.612;2023-03-01T02:37:21;2.00;76.60
1107;DHT22;540;49.448;8.612;2023-03-01T02:39:54;2.20;77.80
1107;DHT22;540;49.448;8.612;2023-03-01T02:42:26;1.90;77.30
1107;DHT22;540;49.448;8.612;2023-03-01T02:44:57;2.00;77.00
1107;DHT22;540;49.448;8.612;2023-03-01T02:47:24;1.50;76.30
1107;DHT22;540;49.448;8.612;2023-03-01T02:49:52;2.00;77.30
1107;DHT22;540;49.448;8.612;2023-03-01T02:52:43;2.20;76.20
1107;DHT22;540;49.448;8.612;2023-03-01T02:55:14;2.20;77.30
1107;DHT22;540;49.448;8.612;2023-03-01T02:57:45;2.20;77.00
1107;DHT22;540;49.448;8.612;2023-03-01T03:00:21;2.10;76.00
1107;DHT22;540;49.448;8.612;2023-03-01T03:02:53;2.30;77.90
1107;DHT22;540;49.448;8.612;2023-03-01T03:05:24;2.00;77.20
1107;DHT22;540;49.448;8.612;2023-03-01T03:07:52;2.00;77.90
1107;DHT22;540;49.448;8.612;2023-03-01T03:10:22;1.80;77.00
1107;DHT22;540;49.448;8.612;2023-03-01T03:12:51;1.90;78.40
1107;DHT22;540;49.448;8.612;2023-03-01T03:15:21;2.00;78.80
1107;DHT22;540;49.448;8.612;2023-03-01T03:17:51;1.90;78.90
1107;DHT22;540;49.448;8.612;2023-03-01T03:20:22;2.00;78.50
1107;DHT22;540;49.448;8.612;2023-03-01T03:22:52;2.00;79.10
1107;DHT22;540;49.448;8.612;2023-03-01T03:25:21;2.00;79.50
1107;DHT22;540;49.448;8.612;2023-03-01T03:27:50;1.80;79.20
1107;DHT22;540;49.448;8.612;2023-03-01T03:30:25;1.90;78.40
1107;DHT22;540;49.448;8.612;2023-03-01T03:32:54;1.70;78.40
1107;DHT22;540;49.448;8.612;2023-03-01T03:35:25;1.80;79.40
1107;DHT22;540;49.448;8.612;2023-03-01T03:37:53;1.90;78.40
1107;DHT22;540;49.448;8.612;2023-03-01T03:40:31;1.70;78.20
1107;DHT22;540;49.448;8.612;2023-03-01T03:42:59;1.80;79.90
1107;DHT22;540;49.448;8.612;2023-03-01T03:45:28;1.70;80.20
1107;DHT22;540;49.448;8.612;2023-03-01T03:48:00;1.70;80.00
1107;DHT22;540;49.448;8.612;2023-03-01T03:50:28;1.60;79.90
1107;DHT22;540;49.448;8.612;2023-03-01T03:52:56;1.60;80.90
1107;DHT22;540;49.448;8.612;2023-03-01T03:55:23;1.60;82.00
1107;DHT22;540;49.448;8.612;2023-03-01T03:57:57;1.50;81.80
1107;DHT22;540;49.448;8.612;2023-03-01T04:00:29;1.70;81.50
1107;DHT22;540;49.448;8.612;2023-03-01T04:02:57;1.50;81.70
1107;DHT22;540;49.448;8.612;2023-03-01T04:05:25;1.70;81.90
1107;DHT22;540;49.448;8.612;2023-03-01T04:07:53;1.50;82.70
1107;DHT22;540;49.448;8.612;2023-03-01T04:10:35;1.50;82.10
1107;DHT22;540;49.448;8.612;2023-03-01T04:13:04;1.50;81.30
1107;DHT22;540;49.448;8.612;2023-03-01T04:15:34;1.50;82.90
1107;DHT22;540;49.448;8.612;2023-03-01T04:18:02;1.50;82.50
1107;DHT22;540;49.448;8.612;2023-03-01T04:20:34;1.60;82.90
1107;DHT22;540;49.448;8.612;2023-03-01T04:23:03;1.80;83.80
1107;DHT22;540;49.448;8.612;2023-03-01T04:25:38;1.60;82.50
1107;DHT22;540;49.448;8.612;2023-03-01T04:28:07;1.50;81.90
1107;DHT22;540;49.448;8.612;2023-03-01T04:30:36;1.80;82.50
1107;DHT22;540;49.448;8.612;2023-03-01T04:33:06;1.60;83.10
1107;DHT22;540;49.448;8.612;2023-03-01T04:35:34;1.70;81.90
1107;DHT22;540;49.448;8.612;2023-03-01T04:38:03;1.60;82.10
1107;DHT22;540;49.448;8.612;2023-03-01T04:40:32;1.60;83.30
1107;DHT22;540;49.448;8.612;2023-03-01T04:43:00;1.50;82.90
1107;DHT22;540;49.448;8.612;2023-03-01T04:45:28;1.70;82.20
1107;DHT22;540;49.448;8.612;2023-03-01T04:47:57;1.70;81.40
1107;DHT22;540;49.448;8.612;2023-03-01T04:50:25;1.80;80.10
1107;DHT22;540;49.448;8.612;2023-03-01T04:52:53;1.80;79.90
1107;DHT22;540;49.448;8.612;2023-03-01T04:55:25;1.70;79.30
1107;DHT22;540;49.448;8.612;2023-03-01T04:57:53;1.70;80.00
1107;DHT22;540;49.448;8.612;2023-03-01T05:00:22;1.70;81.20
1107;DHT22;540;49.448;8.612;2023-03-01T05:02:51;1.80;82.20
1107;DHT22;540;49.448;8.612;2023-03-01T05:05:24;1.80;81.20
1107;DHT22;540;49.448;8.612;2023-03-01T05:07:53;1.70;81.20
1107;DHT22;540;49.448;8.612;2023-03-01T05:10:21;1.90;80.80
1107;DHT22;540;49.448;8.612;2023-03-01T05:12:49;1.90;80.10
1107;DHT22;540;49.448;8.612;2023-03-01T05:15:18;1.90;79.20
1107;DHT22;540;49.448;8.612;2023-03-01T05:17:48;2.00;78.70
1107;DHT22;540;49.448;8.612;2023-03-01T05:20:16;2.00;78.70
1107;DHT22;540;49.448;8.612;2023-03-01T05:22:45;1.80;78.40
1107;DHT22;540;49.448;8.612;2023-03-01T05:25:13;2.00;78.50
1107;DHT22;540;49.448;8.612;2023-03-01T05:27:41;2.00;77.70
1107;DHT22;540;49.448;8.612;2023-03-01T05:30:10;2.00;77.40
1107;DHT22;540;49.448;8.612;2023-03-01T05:32:44;2.60;77.70
1107;DHT22;540;49.448;8.612;2023-03-01T05:35:14;2.10;77.90
1107;DHT22;540;49.448;8.612;2023-03-01T05:37:43;2.10;76.70
1107;DHT22;540;49.448;8.612;2023-03-01T05:40:14;2.00;77.00
1107;DHT22;540;49.448;8.612;2023-03-01T05:42:44;2.30;78.40
1107;DHT22;540;49.448;8.612;2023-03-01T05:45:13;2.10;77.20
1107;DHT22;540;49.448;8.612;2023-03-01T05:47:44;2.50;77.40
1107;DHT22;540;49.448;8.612;2023-03-01T05:50:13;2.20;78.30
1107;DHT22;540;49.448;8.612;2023-03-01T05:52:46;2.00;77.90
1107;DHT22;540;49.448;8.612;2023-03-01T05:55:17;1.90;78.30
1107;DHT22;540;49.448;8.612;2023-03-01T05:57:45;2.00;78.50
1107;DHT22;540;49.448;8.612;2023-03-01T06:00:16;2.20;78.40
1107;DHT22;540;49.448;8.612;2023-03-01T06:02:44;1.70;79.00
1107;DHT22;540;49.448;8.612;2023-03-01T06:05:13;2.00;79.00
1107;DHT22;540;49.448;8.612;2023-03-01T06:07:41;1.90;78.10
1107;DHT22;540;49.448;8.612;2023-03-01T06:10:12;1.80;78.40
1107;DHT22;540;49.448;8.612;2023-03-01T06:12:42;2.00;78.80
1107;DHT22;540;49.448;8.612;2023-03-01T06:15:11;1.90;78.60
1107;DHT22;540;49.448;8.612;2023-03-01T06:17:40;1.70;78.50
1107;DHT22;540;49.448;8.612;2023-03-01T06:20:11;1.80;78.80
1107;DHT22;540;49.448;8.612;2023-03-01T06:22:39;2.00;78.40
1107;DHT22;540;49.448;8.612;2023-03-01T06:25:08;1.90;78.50
1107;DHT22;540;49.448;8.612;2023-03-01T06:27:36;2.00;78.10
1107;DHT22;540;49.448;8.612;2023-03-01T06:30:07;1.70;78.10
1107;DHT22;540;49.448;8.612;2023-03-01T06:32:37;1.90;78.40
1107;DHT22;540;49.448;8.612;2023-03-01T06:35:08;1.90;78.40
1107;DHT22;540;49.448;8.612;2023-03-01T06:37:37;2.20;78.40
1107;DHT22;540;49.448;8.612;2023-03-01T06:40:07;2.00;77.60
1107;DHT22;540;49.448;8.612;2023-03-01T06:42:38;2.10;78.30
1107;DHT22;540;49.448;8.612;2023-03-01T06:45:09;2.00;76.80
1107;DHT22;540;49.448;8.612;2023-03-01T06:47:37;2.20;77.50
1107;DHT22;540;49.448;8.612;2023-03-01T06:50:05;2.20;76.30
1107;DHT22;540;49.448;8.612;2023-03-01T06:52:33;2.30;76.50
1107;DHT22;540;49.448;8.612;2023-03-01T06:55:01;2.50;75.90
1107;DHT22;540;49.448;8.612;2023-03-01T06:57:29;1.80;75.10
1107;DHT22;540;49.448;8.612;2023-03-01T06:59:57;2.30;74.90
1107;DHT22;540;49.448;8.612;2023-03-01T07:02:26;2.50;74.90
1107;DHT22;540;49.448;8.612;2023-03-01T07:04:54;2.60;74.50
1107;DHT22;540;49.448;8.612;2023-03-01T07:07:22;2.60;74.10
1107;DHT22;540;49.448;8.612;2023-03-01T07:09:50;2.50;73.40
1107;DHT22;540;49.448;8.612;2023-03-01T07:12:18;2.80;73.30
1107;DHT22;540;49.448;8.612;2023-03-01T07:14:45;2.60;73.30
1107;DHT22;540;49.448;8.612;2023-03-01T07:17:13;2.80;72.70
1107;DHT22;540;49.448;8.612;2023-03-01T07:19:42;2.90;73.00
1107;DHT22;540;49.448;8.612;2023-03-01T07:22:11;3.00;73.00
1107;DHT22;540;49.448;8.612;2023-03-01T07:24:39;3.20;72.80
1107;DHT22;540;49.448;8.612;2023-03-01T07:27:08;3.10;71.80
1107;DHT22;540;49.448;8.612;2023-03-01T07:29:35;3.20;71.40
1107;DHT22;540;49.448;8.612;2023-03-01T07:32:04;2.90;70.60
1107;DHT22;540;49.448;8.612;2023-03-01T07:34:32;3.40;71.60
1107;DHT22;540;49.448;8.612;2023-03-01T07:37:02;3.40;69.80
1107;DHT22;540;49.448;8.612;2023-03-01T07:39:29;3.50;69.00
1107;DHT22;540;49.448;8.612;2023-03-01T07:41:57;3.80;69.20
1107;DHT22;540;49.448;8.612;2023-03-01T07:44:25;3.90;68.50
1107;DHT22;540;49.448;8.612;2023-03-01T07:46:53;3.90;67.90
1107;DHT22;540;49.448;8.612;2023-03-01T07:49:23;4.70;67.30
1107;DHT22;540;49.448;8.612;2023-03-01T07:51:52;5.20;64.80
1107;DHT22;540;49.448;8.612;2023-03-01T07:54:22;6.60;61.00
1107;DHT22;540;49.448;8.612;2023-03-01T07:56:49;7.80;57.70
1107;DHT22;540;49.448;8.612;2023-03-01T07:59:18;9.10;54.90
1107;DHT22;540;49.448;8.612;2023-03-01T08:01:46;9.70;51.30
1107;DHT22;540;49.448;8.612;2023-03-01T08:04:13;9.90;49.10
1107;DHT22;540;49.448;8.612;2023-03-01T08:06:41;10.70;47.30
1107;DHT22;540;49.448;8.612;2023-03-01T08:09:09;10.60;44.60
1107;DHT22;540;49.448;8.612;2023-03-01T08:11:38;11.00;44.30
1107;DHT22;540;49.448;8.612;2023-03-01T08:14:06;11.20;43.70
1107;DHT22;540;49.448;8.612;2023-03-01T08:16:34;11.60;43.00
1107;DHT22;540;49.448;8.612;2023-03-01T08:19:04;11.60;42.30
1107;DHT22;540;49.448;8.612;2023-03-01T08:21:32;12.00;42.00
1107;DHT22;540;49.448;8.612;2023-03-01T08:24:02;11.80;41.20
1107;DHT22;540;49.448;8.612;2023-03-01T08:26:30;12.10;41.00
1107;DHT22;540;49.448;8.612;2023-03-01T08:29:00;12.50;40.90
1107;DHT22;540;49.448;8.612;2023-03-01T08:31:30;12.70;39.50
1107;DHT22;540;49.448;8.612;2023-03-01T08:34:00;12.40;38.90
1107;DHT22;540;49.448;8.612;2023-03-01T08:36:30;12.30;39.10
1107;DHT22;540;49.448;8.612;2023-03-01T08:38:59;12.80;39.30
1107;DHT22;540;49.448;8.612;2023-03-01T08:41:27;12.70;38.30
1107;DHT22;540;49.448;8.612;2023-03-01T08:43:55;12.70;37.70
1107;DHT22;540;49.448;8.612;2023-03-01T08:46:27;12.80;38.20
1107;DHT22;540;49.448;8.612;2023-03-01T08:48:56;13.20;37.90
1107;DHT22;540;49.448;8.612;2023-03-01T08:51:25;13.30;37.40
1107;DHT22;540;49.448;8.612;2023-03-01T08:53:53;13.50;37.10
1107;DHT22;540;49.448;8.612;2023-03-01T08:56:21;13.70;36.60
1107;DHT22;540;49.448;8.612;2023-03-01T08:58:48;13.40;35.80
1107;DHT22;540;49.448;8.612;2023-03-01T09:01:18;14.00;35.40
1107;DHT22;540;49.448;8.612;2023-03-01T09:03:50;13.90;35.00
1107;DHT22;540;49.448;8.612;2023-03-01T09:06:19;13.80;35.00
1107;DHT22;540;49.448;8.612;2023-03-01T09:08:50;14.10;35.00
1107;DHT22;540;49.448;8.612;2023-03-01T09:11:21;13.90;35.50
1107;DHT22;540;49.448;8.612;2023-03-01T09:13:51;13.50;35.60
1107;DHT22;540;49.448;8.612;2023-03-01T09:16:21;13.70;35.30
1107;DHT22;540;49.448;8.612;2023-03-01T09:18:54;14.20;35.00
1107;DHT22;540;49.448;8.612;2023-03-01T09:21:24;14.50;34.80
1107;DHT22;540;49.448;8.612;2023-03-01T09:24:08;14.60;33.80
1107;DHT22;540;49.448;8.612;2023-03-01T09:26:41;14.10;33.50
1107;DHT22;540;49.448;8.612;2023-03-01T09:29:11;14.10;34.60
1107;DHT22;540;49.448;8.612;2023-03-01T09:31:41;14.60;34.00
1107;DHT22;540;49.448;8.612;2023-03-01T09:34:12;14.70;33.30
1107;DHT22;540;49.448;8.612;2023-03-01T09:36:43;14.50;33.30
1107;DHT22;540;49.448;8.612;2023-03-01T09:39:13;14.70;33.30
1107;DHT22;540;49.448;8.612;2023-03-01T09:41:49;14.90;33.40
1107;DHT22;540;49.448;8.612;2023-03-01T09:44:27;14.50;32.70
1107;DHT22;540;49.448;8.612;2023-03-01T09:46:57;15.00;32.60
1107;DHT22;540;49.448;8.612;2023-03-01T09:49:30;14.70;32.90
1107;DHT22;540;49.448;8.612;2023-03-01T09:52:03;15.60;32.80
1107;DHT22;540;49.448;8.612;2023-03-01T09:54:36;15.00;32.50
1107;DHT22;540;49.448;8.612;2023-03-01T09:57:16;14.30;33.00
1107;DHT22;540;49.448;8.612;2023-03-01T09:59:59;14.20;33.80
1107;DHT22;540;49.448;8.612;2023-03-01T10:02:38;14.40;34.20
1107;DHT22;540;49.448;8.612;2023-03-01T10:05:19;14.70;33.70
1107;DHT22;540;49.448;8.612;2023-03-01T10:07:55;14.80;33.50
1107;DHT22;540;49.448;8.612;2023-03-01T10:10:32;14.80;33.00
1107;DHT22;540;49.448;8.612;2023-03-01T10:13:04;15.20;32.90
1107;DHT22;540;49.448;8.612;2023-03-01T10:15:39;14.70;32.40
1107;DHT22;540;49.448;8.612;2023-03-01T10:18:13;15.50;33.20
1107;DHT22;540;49.448;8.612;2023-03-01T10:20:51;15.50;32.00
1107;DHT22;540;49.448;8.612;2023-03-01T10:23:19;14.60;30.90
1107;DHT22;540;49.448;8.612;2023-03-01T10:25:56;15.30;32.00
1107;DHT22;540;49.448;8.612;2023-03-01T10:28:38;15.40;32.50
1107;DHT22;540;49.448;8.612;2023-03-01T10:31:13;15.70;31.70
1107;DHT22;540;49.448;8.612;2023-03-01T10:33:41;15.40;31.40
1107;DHT22;540;49.448;8.612;2023-03-01T10:36:11;15.30;31.70
1107;DHT22;540;49.448;8.612;2023-03-01T10:38:49;15.70;31.70
1107;DHT22;540;49.448;8.612;2023-03-01T10:41:19;15.60;31.00
1107;DHT22;540;49.448;8.612;2023-03-01T10:43:49;16.20;31.10
1107;DHT22;540;49.448;8.612;2023-03-01T10:46:25;16.30;31.20
1107;DHT22;540;49.448;8.612;2023-03-01T10:49:12;16.10;31.00
1107;DHT22;540;49.448;8.612;2023-03-01T10:51:43;15.80;30.80
1107;DHT22;540;49.448;8.612;2023-03-01T10:54:17;16.30;30.60
1107;DHT22;540;49.448;8.612;2023-03-01T10:56:47;16.40;30.80
1107;DHT22;540;49.448;8.612;2023-03-01T10:59:27;16.80;30.80
1107;DHT22;540;49.448;8.612;2023-03-01T11:02:04;16.70;30.20
1107;DHT22;540;49.448;8.612;2023-03-01T11:04:58;16.30;30.50
1107;DHT22;540;49.448;8.612;2023-03-01T11:07:27;16.50;30.90
1107;DHT22;540;49.448;8.612;2023-03-01T11:09:56;16.60;30.70
1107;DHT22;540;49.448;8.612;2023-03-01T11:12:24;16.60;30.40
1107;DHT22;540;49.448;8.612;2023-03-01T11:14:54;16.50;30.30
1107;DHT22;540;49.448;8.612;2023-03-01T11:17:25;16.70;31.00
1107;DHT22;540;49.448;8.612;2023-03-01T11:20:06;16.60;30.20
1107;DHT22;540;49.448;8.612;2023-03-01T11:22:46;17.10;30.30
1107;DHT22;540;49.448;8.612;2023-03-01T11:25:15;17.30;29.50
1107;DHT22;540;49.448;8.612;2023-03-01T11:27:45;17.20;29.50
1107;DHT22;540;49.448;8.612;2023-03-01T11:30:18;17.10;29.90
1107;DHT22;540;49.448;8.612;2023-03-01T11:32:53;16.70;29.80
1107;DHT22;540;49.448;8.612;2023-03-01T11:35:24;16.60;30.10
1107;DHT22;540;49.448;8.612;2023-03-01T11:38:02;16.80;30.50
1107;DHT22;540;49.448;8.612;2023-03-01T11:40:37;16.90;30.20
1107;DHT22;540;49.448;8.612;2023-03-01T11:43:15;17.00;29.90
1107;DHT22;540;49.448;8.612;2023-03-01T11:45:58;17.40;30.20
1107;DHT22;540;49.448;8.612;2023-03-01T11:48:41;17.40;29.50
1107;DHT22;540;49.448;8.612;2023-03-01T11:51:21;16.90;29.50
1107;DHT22;540;49.448;8.612;2023-03-01T11:54:02;17.20;29.50
1107;DHT22;540;49.448;8.612;2023-03-01T11:56:35;17.90;29.50
1107;DHT22;540;49.448;8.612;2023-03-01T12:02:12;17.70;29.40
1107;DHT22;540;49.448;8.612;2023-03-01T12:07:48;17.60;29.50
1107;DHT22;540;49.448;8.612;2023-03-01T12:10:25;17.10;29.20
1107;DHT22;540;49.448;8.612;2023-03-01T12:13:08;17.10;29.60
1107;DHT22;540;49.448;8.612;2023-03-01T12:15:49;17.20;30.00
1107;DHT22;540;49.448;8.612;2023-03-01T12:18:45;17.20;29.60
1107;DHT22;540;49.448;8.612;2023-03-01T12:21:30;16.80;29.20
1107;DHT22;540;49.448;8.612;2023-03-01T12:24:14;16.30;30.00
1107;DHT22;540;49.448;8.612;2023-03-01T12:26:55;16.10;31.00
1107;DHT22;540;49.448;8.612;2023-03-01T12:29:30;16.60;31.60
1107;DHT22;540;49.448;8.612;2023-03-01T12:32:28;16.40;31.40
1107;DHT22;540;49.448;8.612;2023-03-01T12:35:29;16.00;31.50
1107;DHT22;540;49.448;8.612;2023-03-01T12:38:10;15.60;31.40
1107;DHT22;540;49.448;8.612;2023-03-01T12:41:06;15.70;32.30
1107;DHT22;540;49.448;8.612;2023-03-01T12:43:51;15.90;32.30
1107;DHT22;540;49.448;8.612;2023-03-01T12:46:32;14.90;31.90
1107;DHT22;540;49.448;8.612;2023-03-01T12:49:09;15.00;33.10
1107;DHT22;540;49.448;8.612;2023-03-01T12:51:40;15.20;33.40
1107;DHT22;540;49.448;8.612;2023-03-01T12:54:15;15.50;33.30
1107;DHT22;540;49.448;8.612;2023-03-01T12:56:43;16.00;33.10
1107;DHT22;540;49.448;8.612;2023-03-01T12:59:23;15.10;33.10
1107;DHT22;540;49.448;8.612;2023-03-01T13:01:54;15.00;33.40
1107;DHT22;540;49.448;8.612;2023-03-01T13:04:32;15.20;33.80
1107;DHT22;540;49.448;8.612;2023-03-01T13:07:18;15.00;33.50
1107;DHT22;540;49.448;8.612;2023-03-01T13:09:52;15.40;33.60
1107;DHT22;540;49.448;8.612;2023-03-01T13:13:00;15.60;33.30
1107;DHT22;540;49.448;8.612;2023-03-01T13:15:32;15.80;33.00
1107;DHT22;540;49.448;8.612;2023-03-01T13:18:03;15.60;32.80
1107;DHT22;540;49.448;8.612;2023-03-01T13:20:34;15.90;33.50
1107;DHT22;540;49.448;8.612;2023-03-01T13:23:24;15.70;32.90
1107;DHT22;540;49.448;8.612;2023-03-01T13:26:14;15.40;32.60
1107;DHT22;540;49.448;8.612;2023-03-01T13:28:53;15.50;32.60
1107;DHT22;540;49.448;8.612;2023-03-01T13:34:55;14.70;33.30
1107;DHT22;540;49.448;8.612;2023-03-01T13:37:31;14.60;33.70
1107;DHT22;540;49.448;8.612;2023-03-01T13:40:03;14.10;33.30
1107;DHT22;540;49.448;8.612;2023-03-01T13:42:36;14.20;33.90
1107;DHT22;540;49.448;8.612;2023-03-01T13:47:54;14.10;35.30
1107;DHT22;540;49.448;8.612;2023-03-01T13:50:29;14.20;34.50
1107;DHT22;540;49.448;8.612;2023-03-01T13:53:00;14.70;34.90
1107;DHT22;540;49.448;8.612;2023-03-01T13:55:37;14.80;34.30
1107;DHT22;540;49.448;8.612;2023-03-01T13:58:16;14.50;34.00
1107;DHT22;540;49.448;8.612;2023-03-01T14:00:46;14.30;34.40
1107;DHT22;540;49.448;8.612;2023-03-01T14:03:16;14.20;34.70
1107;DHT22;540;49.448;8.612;2023-03-01T14:06:04;14.00;35.00
1107;DHT22;540;49.448;8.612;2023-03-01T14:08:41;14.20;35.90
1107;DHT22;540;49.448;8.612;2023-03-01T14:11:33;14.00;36.00
1107;DHT22;540;49.448;8.612;2023-03-01T14:14:14;13.80;35.70
1107;DHT22;540;49.448;8.612;2023-03-01T14:16:53;13.50;36.30
1107;DHT22;540;49.448;8.612;2023-03-01T14:19:26;12.70;36.10
1107;DHT22;540;49.448;8.612;2023-03-01T14:22:05;12.70;37.00
1107;DHT22;540;49.448;8.612;2023-03-01T14:24:44;12.90;37.40
1107;DHT22;540;49.448;8.612;2023-03-01T14:27:13;12.70;37.40
1107;DHT22;540;49.448;8.612;2023-03-01T14:29:41;12.60;37.40
1107;DHT22;540;49.448;8.612;2023-03-01T14:32:12;12.10;37.70
1107;DHT22;540;49.448;8.612;2023-03-01T14:34:43;12.50;37.90
1107;DHT22;540;49.448;8.612;2023-03-01T14:37:20;12.30;38.20
1107;DHT22;540;49.448;8.612;2023-03-01T14:39:48;12.40;39.00
1107;DHT22;540;49.448;8.612;2023-03-01T14:42:17;12.00;39.10
1107;DHT22;540;49.448;8.612;2023-03-01T14:44:47;11.80;38.90
1107;DHT22;540;49.448;8.612;2023-03-01T14:47:23;11.70;39.30
1107;DHT22;540;49.448;8.612;2023-03-01T14:49:56;11.70;40.30
1107;DHT22;540;49.448;8.612;2023-03-01T14:52:33;11.50;39.80
1107;DHT22;540;49.448;8.612;2023-03-01T14:55:05;11.50;40.50
1107;DHT22;540;49.448;8.612;2023-03-01T14:57:34;11.50;40.60
1107;DHT22;540;49.448;8.612;2023-03-01T15:00:05;11.60;41.40
1107;DHT22;540;49.448;8.612;2023-03-01T15:02:34;11.40;40.70
1107;DHT22;540;49.448;8.612;2023-03-01T15:05:04;11.40;41.10
1107;DHT22;540;49.448;8.612;2023-03-01T15:07:39;11.20;40.80
1107;DHT22;540;49.448;8.612;2023-03-01T15:10:17;11.00;40.90
1107;DHT22;540;49.448;8.612;2023-03-01T15:12:46;10.80;41.90
1107;DHT22;540;49.448;8.612;2023-03-01T15:15:35;10.70;41.80
1107;DHT22;540;49.448;8.612;2023-03-01T15:18:12;10.50;41.80
1107;DHT22;540;49.448;8.612;2023-03-01T15:20:41;10.60;42.60
1107;DHT22;540;49.448;8.612;2023-03-01T15:23:20;10.60;42.40
1107;DHT22;540;49.448;8.612;2023-03-01T15:25:50;9.90;43.50
1107;DHT22;540;49.448;8.612;2023-03-01T15:28:25;10.60;42.90
1107;DHT22;540;49.448;8.612;2023-03-01T15:30:58;10.60;42.60
1107;DHT22;540;49.448;8.612;2023-03-01T15:33:37;10.50;42.30
1107;DHT22;540;49.448;8.612;2023-03-01T15:36:40;10.50;42.50
1107;DHT22;540;49.448;8.612;2023-03-01T15:39:27;10.50;42.90
1107;DHT22;540;49.448;8.612;2023-03-01T15:41:58;10.40;43.00
1107;DHT22;540;49.448;8.612;2023-03-01T15:44:27;10.40;42.90
1107;DHT22;540;49.448;8.612;2023-03-01T15:47:23;9.90;43.30
1107;DHT22;540;49.448;8.612;2023-03-01T15:49:54;10.10;43.30
1107;DHT22;540;49.448;8.612;2023-03-01T15:52:25;10.20;43.40
1107;DHT22;540;49.448;8.612;2023-03-01T15:54:59;10.20;43.30
1107;DHT22;540;49.448;8.612;2023-03-01T15:57:27;10.10;43.90
1107;DHT22;540;49.448;8.612;2023-03-01T15:59:55;9.90;44.40
1107;DHT22;540;49.448;8.612;2023-03-01T16:02:24;9.70;44.40
1107;DHT22;540;49.448;8.612;2023-03-01T16:04:52;10.00;43.80
1107;DHT22;540;49.448;8.612;2023-03-01T16:07:20;10.00;44.20
1107;DHT22;540;49.448;8.612;2023-03-01T16:09:48;10.10;44.50
1107;DHT22;540;49.448;8.612;2023-03-01T16:12:17;9.80;45.60
1107;DHT22;540;49.448;8.612;2023-03-01T16:14:46;10.10;44.70
1107;DHT22;540;49.448;8.612;2023-03-01T16:17:15;9.60;45.10
1107;DHT22;540;49.448;8.612;2023-03-01T16:19:43;9.80;45.10
1107;DHT22;540;49.448;8.612;2023-03-01T16:22:10;9.70;45.00
1107;DHT22;540;49.448;8.612;2023-03-01T16:24:38;9.60;45.10
1107;DHT22;540;49.448;8.612;2023-03-01T16:27:07;9.50;45.10
1107;DHT22;540;49.448;8.612;2023-03-01T16:29:37;9.60;45.60
1107;DHT22;540;49.448;8.612;2023-03-01T16:32:05;9.50;45.80
1107;DHT22;540;49.448;8.612;2023-03-01T16:34:33;9.30;45.80
1107;DHT22;540;49.448;8.612;2023-03-01T16:37:00;9.20;45.80
1107;DHT22;540;49.448;8.612;2023-03-01T16:39:28;8.90;45.40
1107;DHT22;540;49.448;8.612;2023-03-01T16:41:56;9.50;46.40
1107;DHT22;540;49.448;8.612;2023-03-01T16:44:27;9.30;46.80
1107;DHT22;540;49.448;8.612;2023-03-01T16:46:56;9.30;47.50
1107;DHT22;540;49.448;8.612;2023-03-01T16:49:24;9.00;47.90
1107;DHT22;540;49.448;8.612;2023-03-01T16:51:53;9.00;47.80
1107;DHT22;540;49.448;8.612;2023-03-01T16:54:21;9.00;47.90
1107;DHT22;540;49.448;8.612;2023-03-01T16:56:49;8.90;47.80
1107;DHT22;540;49.448;8.612;2023-03-01T16:59:17;8.50;47.90
1107;DHT22;540;49.448;8.612;2023-03-01T17:01:45;8.90;48.60
1107;DHT22;540;49.448;8.612;2023-03-01T17:04:15;8.60;48.80
1107;DHT22;540;49.448;8.612;2023-03-01T17:06:45;8.70;49.30
1107;DHT22;540;49.448;8.612;2023-03-01T17:09:13;8.40;49.40
1107;DHT22;540;49.448;8.612;2023-03-01T17:11:43;8.40;49.10